createdAt,value
2023-05-13T00:01:27.318Z,5.03
2023-05-13T00:03:55.073Z,4.30
2023-05-13T00:06:22.746Z,4.65
2023-05-13T00:08:50.293Z,4.07
2023-05-13T00:11:17.964Z,4.18
2023-05-13T00:13:45.457Z,3.92
2023-05-13T00:16:13.279Z,3.83
2023-05-13T00:18:40.942Z,3.30
2023-05-13T00:21:08.635Z,3.90
2023-05-13T00:23:36.363Z,2.80
2023-05-13T00:26:04.285Z,2.67
2023-05-13T00:28:31.909Z,3.10
2023-05-13T00:30:59.419Z,4.30
2023-05-13T00:33:26.956Z,3.28
2023-05-13T00:35:54.459Z,2.95
2023-05-13T00:38:22.219Z,4.10
2023-05-13T00:40:50.588Z,3.35
2023-05-13T00:43:18.222Z,4.10
2023-05-13T00:45:45.854Z,4.32
2023-05-13T00:48:13.750Z,4.50
2023-05-13T00:50:44.925Z,4.15
2023-05-13T00:53:13.411Z,4.10
2023-05-13T00:55:45.061Z,3.10
2023-05-13T00:58:13.424Z,3.67
2023-05-13T01:01:15.195Z,3.28
2023-05-13T01:04:10.140Z,3.25
2023-05-13T01:07:09.084Z,3.38
2023-05-13T01:09:53.494Z,3.05
2023-05-13T01:12:26.850Z,3.45
2023-05-13T01:17:52.939Z,3.85
2023-05-13T01:20:24.935Z,4.93
2023-05-13T01:22:52.474Z,5.28
2023-05-13T01:25:19.999Z,4.35
2023-05-13T01:27:47.640Z,4.75
2023-05-13T01:30:15.456Z,4.30
2023-05-13T01:32:43.739Z,3.72
2023-05-13T01:35:12.631Z,3.60
2023-05-13T01:37:41.822Z,3.47
2023-05-13T01:40:24.067Z,3.45
2023-05-13T01:42:58.380Z,3.90
2023-05-13T01:45:29.395Z,3.88
2023-05-13T01:47:56.953Z,3.95
2023-05-13T01:50:24.809Z,4.38
2023-05-13T01:52:52.725Z,3.80
2023-05-13T01:55:20.463Z,4.43
2023-05-13T01:57:48.578Z,4.75
2023-05-13T02:00:16.484Z,4.40
2023-05-13T02:02:44.871Z,3.70
2023-05-13T02:05:12.562Z,4.07
2023-05-13T02:07:40.037Z,3.50
2023-05-13T02:10:07.933Z,3.67
2023-05-13T02:12:35.533Z,3.83
2023-05-13T02:15:03.181Z,3.97
2023-05-13T02:17:30.708Z,4.53
2023-05-13T02:19:58.264Z,4.75
2023-05-13T02:22:25.790Z,5.03
2023-05-13T02:24:53.496Z,5.20
2023-05-13T02:27:21.080Z,4.60
2023-05-13T02:29:48.725Z,5.03
2023-05-13T02:32:16.462Z,4.80
2023-05-13T02:34:44.202Z,4.88
2023-05-13T02:37:12.068Z,4.93
2023-05-13T02:39:39.577Z,5.07
2023-05-13T02:42:07.420Z,5.28
2023-05-13T02:44:35.660Z,4.93
2023-05-13T02:47:03.485Z,4.75
2023-05-13T02:49:31.107Z,4.38
2023-05-13T02:51:58.812Z,5.03
2023-05-13T02:54:26.544Z,5.05
2023-05-13T02:56:54.083Z,4.07
2023-05-13T02:59:21.588Z,4.47
2023-05-13T03:01:49.579Z,4.70
2023-05-13T03:04:17.331Z,4.93
2023-05-13T03:06:45.145Z,4.80
2023-05-13T03:09:12.708Z,4.60
2023-05-13T03:11:40.265Z,4.90
2023-05-13T03:14:07.982Z,4.88
2023-05-13T03:16:35.574Z,4.78
2023-05-13T03:19:03.450Z,4.38
2023-05-13T03:21:31.198Z,3.83
2023-05-13T03:23:58.824Z,4.13
2023-05-13T03:26:26.998Z,2.90
2023-05-13T03:28:54.538Z,4.10
2023-05-13T03:31:22.284Z,4.88
2023-05-13T03:33:50.187Z,4.15
2023-05-13T03:36:18.026Z,4.22
2023-05-13T03:38:45.553Z,3.85
2023-05-13T03:41:13.179Z,3.30
2023-05-13T03:43:40.887Z,3.60
2023-05-13T03:46:08.472Z,3.70
2023-05-13T03:48:36.073Z,4.03
2023-05-13T03:51:04.006Z,4.45
2023-05-13T03:53:31.525Z,4.65
2023-05-13T03:55:59.103Z,4.88
2023-05-13T03:58:26.612Z,4.78
2023-05-13T04:00:54.129Z,3.60
2023-05-13T04:03:21.869Z,3.55
2023-05-13T04:05:49.832Z,3.50
2023-05-13T04:08:17.524Z,4.05
2023-05-13T04:10:46.244Z,4.00
2023-05-13T04:13:13.703Z,3.70
2023-05-13T04:15:42.282Z,3.95
2023-05-13T04:18:11.425Z,4.43
2023-05-13T04:20:39.803Z,4.03
2023-05-13T04:23:07.707Z,3.65
2023-05-13T04:25:37.511Z,3.20
2023-05-13T04:28:05.581Z,2.60
2023-05-13T04:30:33.063Z,2.70
2023-05-13T04:33:00.653Z,2.78
2023-05-13T04:35:28.185Z,3.10
2023-05-13T04:37:55.686Z,3.05
2023-05-13T04:40:23.514Z,3.10
2023-05-13T04:42:55.045Z,2.50
2023-05-13T04:45:24.160Z,2.63
2023-05-13T04:47:51.834Z,2.55
2023-05-13T04:50:19.538Z,2.38
2023-05-13T04:52:47.822Z,2.88
2023-05-13T04:55:15.534Z,2.97
2023-05-13T04:57:42.985Z,3.30
2023-05-13T05:00:12.855Z,2.85
2023-05-13T05:02:40.476Z,2.92
2023-05-13T05:05:09.152Z,2.78
2023-05-13T05:07:40.688Z,2.85
2023-05-13T05:10:09.117Z,3.65
2023-05-13T05:12:38.247Z,3.67
2023-05-13T05:15:06.693Z,4.43
2023-05-13T05:17:35.567Z,4.20
2023-05-13T05:20:03.459Z,4.30
2023-05-13T05:22:31.063Z,4.40
2023-05-13T05:24:58.545Z,4.28
2023-05-13T05:27:26.077Z,5.10
2023-05-13T05:29:53.622Z,4.60
2023-05-13T05:32:21.274Z,4.85
2023-05-13T05:34:48.809Z,5.00
2023-05-13T05:37:16.569Z,4.88
2023-05-13T05:39:44.015Z,4.90
2023-05-13T05:42:12.725Z,4.93
2023-05-13T05:44:40.324Z,5.00
2023-05-13T05:47:07.812Z,4.60
2023-05-13T05:49:35.267Z,4.55
2023-05-13T05:52:02.774Z,4.45
2023-05-13T05:54:30.795Z,5.18
2023-05-13T05:56:58.257Z,5.05
2023-05-13T05:59:25.895Z,4.75
2023-05-13T06:01:53.544Z,4.53
2023-05-13T06:04:21.084Z,4.35
2023-05-13T06:06:48.723Z,5.00
2023-05-13T06:09:16.415Z,4.68
2023-05-13T06:11:43.849Z,4.05
2023-05-13T06:14:11.381Z,4.38
2023-05-13T06:16:38.868Z,4.13
2023-05-13T06:19:06.374Z,4.65
2023-05-13T06:21:34.868Z,4.20
2023-05-13T06:24:03.309Z,4.03
2023-05-13T06:26:32.016Z,4.40
2023-05-13T06:28:59.557Z,4.43
2023-05-13T06:31:27.271Z,3.92
2023-05-13T06:33:54.806Z,4.05
2023-05-13T06:36:22.412Z,4.28
2023-05-13T06:38:49.931Z,3.97
2023-05-13T06:41:17.400Z,3.97
2023-05-13T06:43:46.362Z,4.13
2023-05-13T06:46:13.816Z,3.88
2023-05-13T06:48:41.534Z,4.07
2023-05-13T06:51:09.209Z,3.50
2023-05-13T06:53:36.737Z,4.20
2023-05-13T06:56:04.306Z,3.72
2023-05-13T06:58:31.818Z,3.90
2023-05-13T07:00:59.305Z,3.85
2023-05-13T07:03:26.885Z,3.90
2023-05-13T07:05:54.530Z,3.90
2023-05-13T07:08:22.283Z,4.18
2023-05-13T07:10:49.750Z,3.72
2023-05-13T07:13:19.404Z,4.22
2023-05-13T07:15:47.497Z,3.60
2023-05-13T07:18:15.240Z,3.58
2023-05-13T07:20:42.851Z,3.47
2023-05-13T07:23:10.309Z,3.88
2023-05-13T07:25:37.788Z,4.28
2023-05-13T07:28:05.308Z,3.63
2023-05-13T07:30:32.823Z,4.50
2023-05-13T07:33:00.440Z,4.55
2023-05-13T07:35:28.162Z,4.25
2023-05-13T07:37:55.697Z,4.00
2023-05-13T07:40:23.361Z,4.07
2023-05-13T07:42:51.094Z,4.28
2023-05-13T07:45:18.693Z,4.22
2023-05-13T07:47:46.190Z,4.20
2023-05-13T07:50:13.874Z,4.15
2023-05-13T07:52:42.266Z,4.20
2023-05-13T07:55:11.006Z,4.20
2023-05-13T07:57:38.639Z,4.35
2023-05-13T08:00:06.794Z,4.20
2023-05-13T08:02:35.417Z,5.22
2023-05-13T08:05:03.345Z,4.90
2023-05-13T08:07:30.975Z,4.53
2023-05-13T08:09:58.486Z,4.13
2023-05-13T08:12:26.037Z,4.65
2023-05-13T08:14:53.593Z,4.15
2023-05-13T08:17:21.266Z,4.65
2023-05-13T08:19:48.829Z,4.70
2023-05-13T08:22:16.318Z,4.53
2023-05-13T08:24:44.198Z,4.25
2023-05-13T08:27:13.028Z,4.20
2023-05-13T08:29:40.543Z,4.40
2023-05-13T08:32:08.068Z,3.63
2023-05-13T08:34:35.653Z,4.60
2023-05-13T08:37:03.209Z,4.28
2023-05-13T08:39:30.694Z,4.65
2023-05-13T08:42:00.272Z,4.50
2023-05-13T08:44:31.845Z,4.70
2023-05-13T08:47:23.062Z,4.90
2023-05-13T08:49:51.452Z,4.78
2023-05-13T08:52:23.118Z,4.47
2023-05-13T08:54:50.645Z,3.78
2023-05-13T08:57:18.126Z,4.63
2023-05-13T08:59:45.872Z,4.63
2023-05-13T09:02:13.466Z,4.65
2023-05-13T09:04:43.443Z,4.60
2023-05-13T09:07:12.042Z,5.07
2023-05-13T09:09:39.936Z,5.38
2023-05-13T09:12:08.249Z,5.00
2023-05-13T09:14:37.519Z,5.38
2023-05-13T09:17:05.673Z,4.50
2023-05-13T09:19:33.238Z,5.43
2023-05-13T09:22:00.815Z,5.45
2023-05-13T09:24:28.513Z,5.53
2023-05-13T09:26:56.559Z,5.20
2023-05-13T09:29:30.532Z,5.25
2023-05-13T09:32:00.268Z,5.47
2023-05-13T09:34:32.871Z,5.03
2023-05-13T09:37:06.068Z,5.53
2023-05-13T09:39:43.749Z,5.90
2023-05-13T09:42:18.190Z,5.75
2023-05-13T09:44:46.606Z,5.47
2023-05-13T09:47:15.117Z,4.53
2023-05-13T09:49:45.271Z,4.93
2023-05-13T09:52:17.138Z,4.20
2023-05-13T09:54:44.981Z,4.72
2023-05-13T09:57:13.611Z,4.80
2023-05-13T09:59:41.680Z,4.15
2023-05-13T10:02:09.371Z,4.28
2023-05-13T10:04:37.215Z,4.30
2023-05-13T10:07:05.271Z,4.60
2023-05-13T10:09:36.636Z,4.40
2023-05-13T10:12:08.127Z,3.67
2023-05-13T10:14:38.257Z,3.60
2023-05-13T10:17:06.948Z,3.83
2023-05-13T10:19:35.057Z,3.97
2023-05-13T10:22:03.089Z,3.70
2023-05-13T10:24:31.739Z,3.70
2023-05-13T10:27:02.084Z,3.35
2023-05-13T10:29:29.741Z,3.10
2023-05-13T10:31:58.977Z,2.90
2023-05-13T10:34:27.609Z,2.78
2023-05-13T10:37:40.937Z,3.40
2023-05-13T10:40:11.610Z,3.50
2023-05-13T10:42:46.275Z,3.13
2023-05-13T10:45:17.268Z,2.97
2023-05-13T10:47:49.986Z,3.83
2023-05-13T10:50:26.896Z,3.47
2023-05-13T10:52:59.188Z,4.10
2023-05-13T10:55:28.500Z,3.47
2023-05-13T10:58:07.890Z,3.97
2023-05-13T11:00:36.424Z,2.88
2023-05-13T11:03:19.930Z,3.22
2023-05-13T11:06:00.315Z,3.03
2023-05-13T11:08:56.094Z,2.90
2023-05-13T11:11:23.916Z,2.88
2023-05-13T11:14:13.688Z,2.88
2023-05-13T11:16:47.078Z,2.50
2023-05-13T11:19:23.141Z,3.05
2023-05-13T11:21:55.577Z,3.20
2023-05-13T11:24:24.092Z,3.20
2023-05-13T11:26:51.636Z,2.83
2023-05-13T11:32:56.769Z,2.55
2023-05-13T11:35:28.578Z,3.10
2023-05-13T11:37:59.156Z,3.40
2023-05-13T11:40:33.069Z,2.78
2023-05-13T11:43:01.555Z,3.22
2023-05-13T11:45:30.402Z,2.80
2023-05-13T11:47:58.373Z,2.30
2023-05-13T11:50:30.942Z,2.30
2023-05-13T11:53:00.686Z,2.40
2023-05-13T11:55:30.359Z,2.75
2023-05-13T11:57:58.894Z,2.40
2023-05-13T12:00:33.840Z,2.20
2023-05-13T12:03:12.000Z,2.60
2023-05-13T12:05:40.435Z,2.13
2023-05-13T12:08:10.174Z,1.80
2023-05-13T12:10:43.943Z,2.40
2023-05-13T12:13:12.534Z,2.50
2023-05-13T12:15:41.492Z,2.60
2023-05-13T12:18:09.111Z,2.55
2023-05-13T12:20:37.824Z,2.13
2023-05-13T12:23:06.317Z,1.90
2023-05-13T12:25:36.826Z,1.80
2023-05-13T12:28:18.873Z,2.05
2023-05-13T12:30:53.666Z,2.28
2023-05-13T12:33:26.911Z,1.92
2023-05-13T12:36:15.758Z,1.88
2023-05-13T12:39:00.136Z,2.03
2023-05-13T12:41:31.261Z,2.08
2023-05-13T12:44:00.510Z,2.10
2023-05-13T12:46:28.953Z,1.98
2023-05-13T12:48:58.252Z,1.73
2023-05-13T12:51:26.097Z,2.28
2023-05-13T12:53:54.800Z,2.22
2023-05-13T12:56:24.269Z,2.65
2023-05-13T12:58:54.392Z,1.95
2023-05-13T13:01:22.578Z,2.08
2023-05-13T13:03:51.046Z,1.77
2023-05-13T13:06:18.869Z,2.25
2023-05-13T13:08:46.525Z,2.30
2023-05-13T13:11:19.066Z,2.30
2023-05-13T13:13:48.242Z,2.00
2023-05-13T13:16:15.951Z,2.08
2023-05-13T13:18:43.756Z,1.90
2023-05-13T13:21:11.512Z,1.42
2023-05-13T13:23:39.151Z,1.83
2023-05-13T13:26:06.751Z,1.83
2023-05-13T13:28:34.320Z,1.90
2023-05-13T13:31:02.058Z,2.28
2023-05-13T13:33:29.720Z,2.15
2023-05-13T13:35:57.251Z,1.63
2023-05-13T13:38:24.821Z,2.28
2023-05-13T13:40:52.892Z,1.90
2023-05-13T13:43:20.627Z,1.65
2023-05-13T13:45:48.218Z,1.98
2023-05-13T13:48:15.966Z,2.00
2023-05-13T13:50:45.373Z,1.95
2023-05-13T13:53:14.232Z,1.73
2023-05-13T13:55:41.772Z,1.80
2023-05-13T13:58:09.233Z,1.83
2023-05-13T14:00:36.805Z,1.70
2023-05-13T14:03:04.546Z,2.03
2023-05-13T14:05:32.475Z,2.20
2023-05-13T14:08:00.104Z,1.90
2023-05-13T14:10:27.703Z,1.85
2023-05-13T14:12:55.257Z,1.85
2023-05-13T14:15:24.377Z,2.00
2023-05-13T14:17:52.070Z,1.73
2023-05-13T14:20:20.892Z,1.98
2023-05-13T14:22:48.702Z,1.92
2023-05-13T14:25:16.624Z,2.13
2023-05-13T14:27:44.075Z,2.10
2023-05-13T14:30:11.883Z,2.13
2023-05-13T14:32:42.722Z,2.40
2023-05-13T14:35:10.500Z,2.40
2023-05-13T14:37:38.097Z,2.05
2023-05-13T14:40:06.271Z,2.35
2023-05-13T14:42:33.950Z,2.05
2023-05-13T14:45:01.638Z,1.92
2023-05-13T14:47:29.280Z,1.90
2023-05-13T14:49:56.989Z,2.03
2023-05-13T14:52:24.507Z,2.70
2023-05-13T14:54:52.406Z,2.45
2023-05-13T14:57:20.107Z,2.78
2023-05-13T14:59:47.627Z,3.10
2023-05-13T15:02:17.506Z,2.38
2023-05-13T15:04:45.227Z,2.30
2023-05-13T15:07:12.744Z,2.30
2023-05-13T15:09:40.283Z,2.38
2023-05-13T15:12:08.369Z,2.33
2023-05-13T15:14:35.836Z,2.15
2023-05-13T15:17:03.648Z,2.97
2023-05-13T15:19:31.708Z,2.40
2023-05-13T15:21:59.190Z,2.30
2023-05-13T15:24:26.726Z,2.65
2023-05-13T15:26:54.193Z,2.45
2023-05-13T15:29:21.688Z,2.88
2023-05-13T15:31:52.218Z,2.92
2023-05-13T15:34:19.690Z,2.83
2023-05-13T15:36:47.177Z,3.25
2023-05-13T15:39:14.674Z,3.15
2023-05-13T15:41:42.383Z,3.20
2023-05-13T15:44:10.164Z,3.55
2023-05-13T15:46:37.952Z,3.15
2023-05-13T15:49:06.683Z,3.00
2023-05-13T15:51:34.153Z,2.90
2023-05-13T15:54:01.765Z,2.72
2023-05-13T15:56:29.419Z,3.30
2023-05-13T15:58:56.986Z,3.42
2023-05-13T16:01:24.507Z,2.83
2023-05-13T16:03:52.195Z,3.00
2023-05-13T16:06:19.697Z,3.20
2023-05-13T16:08:48.596Z,3.28
2023-05-13T16:11:16.121Z,3.10
2023-05-13T16:13:44.689Z,3.35
2023-05-13T16:16:12.312Z,3.30
2023-05-13T16:18:39.833Z,2.90
2023-05-13T16:21:07.320Z,2.80
2023-05-13T16:23:34.978Z,2.90
2023-05-13T16:26:02.769Z,2.92
2023-05-13T16:28:30.333Z,2.88
2023-05-13T16:30:58.715Z,3.42
2023-05-13T16:33:26.431Z,3.13
2023-05-13T16:35:53.890Z,3.13
2023-05-13T16:38:21.460Z,2.97
2023-05-13T16:40:49.209Z,3.45
2023-05-13T16:43:16.730Z,3.03
2023-05-13T16:45:44.457Z,3.28
2023-05-13T16:48:12.758Z,3.17
2023-05-13T16:50:40.339Z,3.00
2023-05-13T16:53:07.886Z,3.08
2023-05-13T16:55:35.811Z,3.30
2023-05-13T16:58:03.296Z,3.67
2023-05-13T17:00:30.927Z,3.15
2023-05-13T17:02:58.522Z,2.58
2023-05-13T17:05:26.335Z,2.67
2023-05-13T17:07:54.151Z,2.65
2023-05-13T17:10:22.056Z,2.60
2023-05-13T17:12:49.872Z,2.53
2023-05-13T17:15:17.456Z,2.30
2023-05-13T17:17:45.806Z,2.50
2023-05-13T17:20:13.489Z,2.20
2023-05-13T17:22:45.591Z,2.75
2023-05-13T17:25:14.106Z,2.45
2023-05-13T17:27:41.830Z,2.65
2023-05-13T17:30:09.911Z,2.75
2023-05-13T17:32:37.455Z,2.70
2023-05-13T17:35:05.442Z,3.13
2023-05-13T17:37:33.084Z,2.67
2023-05-13T17:40:02.598Z,1.88
2023-05-13T17:42:31.516Z,2.50
2023-05-13T17:44:59.366Z,2.30
2023-05-13T17:47:26.916Z,2.35
2023-05-13T17:49:54.459Z,2.22
2023-05-13T17:52:22.118Z,2.65
2023-05-13T17:54:49.585Z,2.75
2023-05-13T17:57:17.605Z,2.83
2023-05-13T17:59:45.138Z,2.75
2023-05-13T18:02:12.780Z,2.90
2023-05-13T18:04:41.198Z,2.88
2023-05-13T18:07:09.128Z,2.75
2023-05-13T18:09:36.754Z,2.85
2023-05-13T18:12:04.531Z,2.50
2023-05-13T18:14:33.451Z,2.58
2023-05-13T18:17:01.058Z,2.83
2023-05-13T18:19:28.560Z,2.72
2023-05-13T18:21:56.153Z,2.55
2023-05-13T18:24:23.630Z,3.35
2023-05-13T18:26:51.256Z,2.78
2023-05-13T18:29:18.863Z,2.40
2023-05-13T18:31:46.377Z,2.20
2023-05-13T18:34:13.890Z,2.47
2023-05-13T18:36:41.469Z,2.50
2023-05-13T18:39:10.039Z,2.50
2023-05-13T18:41:37.575Z,2.70
2023-05-13T18:44:05.165Z,2.80
2023-05-13T18:46:32.841Z,2.97
2023-05-13T18:49:00.753Z,2.92
2023-05-13T18:51:28.177Z,3.80
2023-05-13T18:53:56.108Z,3.63
2023-05-13T18:56:23.886Z,3.90
2023-05-13T18:58:51.552Z,3.95
2023-05-13T19:01:19.077Z,4.45
2023-05-13T19:03:47.146Z,4.85
2023-05-13T19:06:15.698Z,4.15
2023-05-13T19:08:43.191Z,4.65
2023-05-13T19:11:10.716Z,5.47
2023-05-13T19:13:46.823Z,6.30
2023-05-13T19:16:15.524Z,5.22
2023-05-13T19:18:43.242Z,3.90
2023-05-13T19:21:11.078Z,2.97
2023-05-13T19:23:38.583Z,3.63
2023-05-13T19:26:06.241Z,4.20
2023-05-13T19:28:34.550Z,4.35
2023-05-13T19:31:04.406Z,4.90
2023-05-13T19:33:32.402Z,5.32
2023-05-13T19:35:59.938Z,7.53
2023-05-13T19:38:27.658Z,8.32
2023-05-13T19:40:55.149Z,7.50
2023-05-13T19:43:22.748Z,7.32
2023-05-13T19:45:50.536Z,7.60
2023-05-13T19:48:18.010Z,6.90
2023-05-13T19:50:45.511Z,7.13
2023-05-13T19:53:13.733Z,7.85
2023-05-13T19:55:41.400Z,7.30
2023-05-13T19:58:08.953Z,7.97
2023-05-13T20:00:36.592Z,8.63
2023-05-13T20:03:04.291Z,8.50
2023-05-13T20:05:31.953Z,8.38
2023-05-13T20:07:59.758Z,8.07
2023-05-13T20:10:27.277Z,9.48
2023-05-13T20:12:54.734Z,9.50
2023-05-13T20:15:22.278Z,9.90
2023-05-13T20:17:49.921Z,10.98
2023-05-13T20:20:17.573Z,10.48
2023-05-13T20:22:45.099Z,10.90
2023-05-13T20:25:12.779Z,10.60
2023-05-13T20:27:40.289Z,10.35
2023-05-13T20:30:08.731Z,11.52
2023-05-13T20:32:36.461Z,10.68
2023-05-13T20:35:04.185Z,10.90
2023-05-13T20:37:31.825Z,10.68
2023-05-13T20:39:59.274Z,10.88
2023-05-13T20:42:27.427Z,12.07
2023-05-13T20:44:54.943Z,12.30
2023-05-13T20:47:22.410Z,11.90
2023-05-13T20:49:49.931Z,12.73
2023-05-13T20:52:17.639Z,12.05
2023-05-13T20:54:45.190Z,12.60
2023-05-13T20:57:12.740Z,12.73
2023-05-13T20:59:40.417Z,13.27
2023-05-13T21:02:07.913Z,13.73
2023-05-13T21:04:35.432Z,12.35
2023-05-13T21:07:04.820Z,13.27
2023-05-13T21:09:32.425Z,12.15
2023-05-13T21:11:59.964Z,13.25
2023-05-13T21:14:27.499Z,13.43
2023-05-13T21:16:55.500Z,13.23
2023-05-13T21:19:24.580Z,13.70
2023-05-13T21:21:52.160Z,14.63
2023-05-13T21:24:19.996Z,14.90
2023-05-13T21:26:49.231Z,14.13
2023-05-13T21:29:18.623Z,13.70
2023-05-13T21:31:47.659Z,14.43
2023-05-13T21:34:15.340Z,14.73
2023-05-13T21:36:42.872Z,15.15
2023-05-13T21:39:11.240Z,15.15
2023-05-13T21:41:40.119Z,17.45
2023-05-13T21:44:07.812Z,16.55
2023-05-13T21:46:35.268Z,16.80
2023-05-13T21:49:03.044Z,16.95
2023-05-13T21:51:32.731Z,17.05
2023-05-13T21:54:00.518Z,15.00
2023-05-13T21:56:27.972Z,15.70
2023-05-13T21:58:55.557Z,15.98
2023-05-13T22:01:23.177Z,17.30
2023-05-13T22:03:50.785Z,17.80
2023-05-13T22:06:18.329Z,17.13
2023-05-13T22:08:45.981Z,17.05
2023-05-13T22:11:13.414Z,17.30
2023-05-13T22:13:41.602Z,18.02
2023-05-13T22:16:09.304Z,17.02
2023-05-13T22:18:36.988Z,18.85
2023-05-13T22:21:05.901Z,17.20
2023-05-13T22:23:33.832Z,18.15
2023-05-13T22:26:01.348Z,17.52
2023-05-13T22:28:28.882Z,18.13
2023-05-13T22:30:57.065Z,17.58
2023-05-13T22:33:24.536Z,17.73
2023-05-13T22:35:52.167Z,19.35
2023-05-13T22:38:19.647Z,17.02
2023-05-13T22:40:47.110Z,17.38
2023-05-13T22:43:14.610Z,18.15
2023-05-13T22:45:42.623Z,17.55
2023-05-13T22:48:10.505Z,18.15
2023-05-13T22:50:38.478Z,18.05
2023-05-13T22:53:06.205Z,18.80
2023-05-13T22:55:33.705Z,17.92
2023-05-13T22:58:01.466Z,18.92
2023-05-13T23:00:28.987Z,19.63
2023-05-13T23:02:57.534Z,19.25
2023-05-13T23:05:25.151Z,19.60
2023-05-13T23:07:52.694Z,17.52
2023-05-13T23:10:20.291Z,18.10
2023-05-13T23:12:47.817Z,18.58
2023-05-13T23:15:16.305Z,19.10
2023-05-13T23:17:43.968Z,19.48
2023-05-13T23:20:11.880Z,19.48
2023-05-13T23:22:39.422Z,19.30
2023-05-13T23:25:07.693Z,19.73
2023-05-13T23:27:35.856Z,20.15
2023-05-13T23:30:03.606Z,19.98
2023-05-13T23:32:31.183Z,19.40
2023-05-13T23:34:58.871Z,20.05
2023-05-13T23:37:26.381Z,19.73
2023-05-13T23:39:53.859Z,19.15
2023-05-13T23:42:22.058Z,19.10
2023-05-13T23:44:50.047Z,20.90
2023-05-13T23:47:17.573Z,19.60
2023-05-13T23:49:45.248Z,20.77
2023-05-13T23:52:12.864Z,20.08
2023-05-13T23:54:40.374Z,20.13
2023-05-13T23:57:07.908Z,19.83
2023-05-13T23:59:35.664Z,20.67
